GMTA/AHU METAR and TAF weather

Enter ICAO airport designator
Station Type Date Time Source
GMTA METAR 2021/05/17 23:00 UTC NOAA

GMTA 172300Z 19004KT 160V220 CAVOK 20/15 Q1018 NOSIG


Station Type Date Time Source
GMTA Decoded METAR 2021/05/17 23:00 UTC NOAA

Al Hoceima, Morocco (GMTA) 35-11N 003-51W 14M
May 17, 2021 - 07:00 PM EDT / 2021.05.17 2300 UTC
Wind: from the S (190 degrees) at 5 MPH (4 KT) (direction variable):0
Visibility: greater than 7 mile(s):0
Temperature: 68 F (20 C)
Dew Point: 59 F (15 C)
Relative Humidity: 72%
Pressure (altimeter): 30.06 in. Hg (1018 hPa)
ob: GMTA 172300Z 19004KT 160V220 CAVOK 20/15 Q1018 NOSIG
cycle: 23

Station Type Date Time Source
GMTA TAF 2021/05/17 18:18 UTC NOAA

TAF GMTA 171700Z 1718/1824 04008KT CAVOK PROB30 1800/1806 4000 BR SCT013

Example: see airport list